sensor_id;sensor_type;location;lat;lon;timestamp;P1;durP1;ratioP1;P2;durP2;ratioP2
1837;SDS011;918;50.796;6.772;2023-02-03T00:01:38;7.03;;;5.77;;
1837;SDS011;918;50.796;6.772;2023-02-03T00:04:03;11.77;;;5.40;;
1837;SDS011;918;50.796;6.772;2023-02-03T00:06:30;6.70;;;5.40;;
1837;SDS011;918;50.796;6.772;2023-02-03T00:08:55;6.10;;;5.50;;
1837;SDS011;918;50.796;6.772;2023-02-03T00:11:22;5.30;;;4.90;;
1837;SDS011;918;50.796;6.772;2023-02-03T00:13:47;6.87;;;4.83;;
1837;SDS011;918;50.796;6.772;2023-02-03T00:16:12;6.13;;;5.03;;
1837;SDS011;918;50.796;6.772;2023-02-03T00:18:38;5.40;;;4.70;;
1837;SDS011;918;50.796;6.772;2023-02-03T00:21:03;7.03;;;6.43;;
1837;SDS011;918;50.796;6.772;2023-02-03T00:23:29;5.53;;;4.67;;
1837;SDS011;918;50.796;6.772;2023-02-03T00:25:56;5.40;;;4.90;;
1837;SDS011;918;50.796;6.772;2023-02-03T00:28:22;6.50;;;4.53;;
1837;SDS011;918;50.796;6.772;2023-02-03T00:30:47;6.63;;;4.00;;
1837;SDS011;918;50.796;6.772;2023-02-03T00:33:13;8.13;;;3.73;;
1837;SDS011;918;50.796;6.772;2023-02-03T00:35:38;5.23;;;4.47;;
1837;SDS011;918;50.796;6.772;2023-02-03T00:38:04;5.57;;;4.70;;
1837;SDS011;918;50.796;6.772;2023-02-03T00:40:29;5.17;;;4.50;;
1837;SDS011;918;50.796;6.772;2023-02-03T00:42:54;5.27;;;4.77;;
1837;SDS011;918;50.796;6.772;2023-02-03T00:45:20;6.00;;;4.60;;
1837;SDS011;918;50.796;6.772;2023-02-03T00:47:45;4.70;;;4.30;;
1837;SDS011;918;50.796;6.772;2023-02-03T00:50:10;5.50;;;4.40;;
1837;SDS011;918;50.796;6.772;2023-02-03T00:52:36;5.83;;;3.80;;
1837;SDS011;918;50.796;6.772;2023-02-03T00:55:01;4.27;;;3.87;;
1837;SDS011;918;50.796;6.772;2023-02-03T00:57:27;5.60;;;4.07;;
1837;SDS011;918;50.796;6.772;2023-02-03T00:59:52;4.17;;;3.80;;
1837;SDS011;918;50.796;6.772;2023-02-03T01:02:18;4.27;;;3.70;;
1837;SDS011;918;50.796;6.772;2023-02-03T01:04:44;5.50;;;3.53;;
1837;SDS011;918;50.796;6.772;2023-02-03T01:07:09;4.20;;;3.63;;
1837;SDS011;918;50.796;6.772;2023-02-03T01:09:35;6.97;;;4.60;;
1837;SDS011;918;50.796;6.772;2023-02-03T01:12:01;4.93;;;3.27;;
1837;SDS011;918;50.796;6.772;2023-02-03T01:14:27;5.07;;;3.90;;
1837;SDS011;918;50.796;6.772;2023-02-03T01:16:52;5.97;;;4.10;;
1837;SDS011;918;50.796;6.772;2023-02-03T01:19:17;6.13;;;4.40;;
1837;SDS011;918;50.796;6.772;2023-02-03T01:21:42;4.57;;;4.10;;
1837;SDS011;918;50.796;6.772;2023-02-03T01:24:08;4.93;;;3.80;;
1837;SDS011;918;50.796;6.772;2023-02-03T01:26:34;7.10;;;4.50;;
1837;SDS011;918;50.796;6.772;2023-02-03T01:28:59;4.47;;;4.17;;
1837;SDS011;918;50.796;6.772;2023-02-03T01:31:28;4.47;;;4.07;;
1837;SDS011;918;50.796;6.772;2023-02-03T01:33:55;5.43;;;4.50;;
1837;SDS011;918;50.796;6.772;2023-02-03T01:36:22;5.43;;;4.47;;
1837;SDS011;918;50.796;6.772;2023-02-03T01:38:48;4.10;;;3.73;;
1837;SDS011;918;50.796;6.772;2023-02-03T01:41:15;4.97;;;3.80;;
1837;SDS011;918;50.796;6.772;2023-02-03T01:43:45;5.90;;;3.80;;
1837;SDS011;918;50.796;6.772;2023-02-03T01:46:31;4.53;;;3.80;;
1837;SDS011;918;50.796;6.772;2023-02-03T01:49:08;4.10;;;3.80;;
1837;SDS011;918;50.796;6.772;2023-02-03T01:51:46;4.40;;;4.00;;
1837;SDS011;918;50.796;6.772;2023-02-03T01:54:35;5.60;;;3.80;;
1837;SDS011;918;50.796;6.772;2023-02-03T01:57:02;6.93;;;4.20;;
1837;SDS011;918;50.796;6.772;2023-02-03T01:59:29;5.37;;;4.27;;
1837;SDS011;918;50.796;6.772;2023-02-03T02:01:55;3.80;;;3.50;;
1837;SDS011;918;50.796;6.772;2023-02-03T02:04:22;5.53;;;3.53;;
1837;SDS011;918;50.796;6.772;2023-02-03T02:06:50;3.77;;;3.47;;
1837;SDS011;918;50.796;6.772;2023-02-03T02:09:16;4.43;;;4.00;;
1837;SDS011;918;50.796;6.772;2023-02-03T02:11:41;3.97;;;3.67;;
1837;SDS011;918;50.796;6.772;2023-02-03T02:14:06;5.30;;;3.73;;
1837;SDS011;918;50.796;6.772;2023-02-03T02:31:02;5.03;;;3.70;;
1837;SDS011;918;50.796;6.772;2023-02-03T02:33:40;5.43;;;3.70;;
1837;SDS011;918;50.796;6.772;2023-02-03T02:38:58;3.60;;;3.30;;
1837;SDS011;918;50.796;6.772;2023-02-03T02:44:00;5.17;;;3.87;;
1837;SDS011;918;50.796;6.772;2023-02-03T02:51:50;3.33;;;2.83;;
1837;SDS011;918;50.796;6.772;2023-02-03T02:54:17;3.63;;;3.33;;
1837;SDS011;918;50.796;6.772;2023-02-03T02:56:46;3.43;;;3.13;;
1837;SDS011;918;50.796;6.772;2023-02-03T02:59:14;4.00;;;2.83;;
1837;SDS011;918;50.796;6.772;2023-02-03T03:01:39;5.30;;;2.83;;
1837;SDS011;918;50.796;6.772;2023-02-03T03:04:05;3.43;;;3.10;;
1837;SDS011;918;50.796;6.772;2023-02-03T03:06:55;5.87;;;3.17;;
1837;SDS011;918;50.796;6.772;2023-02-03T03:09:22;5.80;;;4.20;;
1837;SDS011;918;50.796;6.772;2023-02-03T03:11:50;5.53;;;3.37;;
1837;SDS011;918;50.796;6.772;2023-02-03T03:14:18;5.87;;;3.37;;
1837;SDS011;918;50.796;6.772;2023-02-03T03:16:47;4.20;;;3.40;;
1837;SDS011;918;50.796;6.772;2023-02-03T03:19:17;7.07;;;3.87;;
1837;SDS011;918;50.796;6.772;2023-02-03T03:21:46;4.00;;;3.70;;
1837;SDS011;918;50.796;6.772;2023-02-03T03:24:17;4.00;;;3.27;;
1837;SDS011;918;50.796;6.772;2023-02-03T03:29:20;5.37;;;3.57;;
1837;SDS011;918;50.796;6.772;2023-02-03T03:31:48;3.73;;;3.03;;
1837;SDS011;918;50.796;6.772;2023-02-03T03:34:14;6.03;;;3.83;;
1837;SDS011;918;50.796;6.772;2023-02-03T03:36:44;7.03;;;3.90;;
1837;SDS011;918;50.796;6.772;2023-02-03T03:45:26;3.70;;;3.40;;
1837;SDS011;918;50.796;6.772;2023-02-03T03:47:49;5.93;;;3.67;;
1837;SDS011;918;50.796;6.772;2023-02-03T03:50:21;5.17;;;3.60;;
1837;SDS011;918;50.796;6.772;2023-02-03T03:52:51;3.20;;;3.00;;
1837;SDS011;918;50.796;6.772;2023-02-03T03:55:18;5.57;;;3.20;;
1837;SDS011;918;50.796;6.772;2023-02-03T03:57:45;4.10;;;3.50;;
1837;SDS011;918;50.796;6.772;2023-02-03T04:00:16;7.63;;;3.87;;
1837;SDS011;918;50.796;6.772;2023-02-03T04:02:43;4.27;;;3.97;;
1837;SDS011;918;50.796;6.772;2023-02-03T04:05:10;4.43;;;3.50;;
1837;SDS011;918;50.796;6.772;2023-02-03T04:07:37;6.70;;;3.10;;
1837;SDS011;918;50.796;6.772;2023-02-03T04:10:06;5.03;;;2.90;;
1837;SDS011;918;50.796;6.772;2023-02-03T04:12:38;3.53;;;3.20;;
1837;SDS011;918;50.796;6.772;2023-02-03T04:15:04;5.07;;;3.27;;
1837;SDS011;918;50.796;6.772;2023-02-03T04:17:29;7.30;;;2.97;;
1837;SDS011;918;50.796;6.772;2023-02-03T04:19:57;4.07;;;2.57;;
1837;SDS011;918;50.796;6.772;2023-02-03T04:22:22;5.47;;;2.70;;
1837;SDS011;918;50.796;6.772;2023-02-03T04:24:47;3.20;;;2.80;;
1837;SDS011;918;50.796;6.772;2023-02-03T04:27:13;5.37;;;2.87;;
1837;SDS011;918;50.796;6.772;2023-02-03T04:29:38;2.60;;;2.40;;
1837;SDS011;918;50.796;6.772;2023-02-03T04:32:03;5.97;;;3.10;;
1837;SDS011;918;50.796;6.772;2023-02-03T04:34:28;3.13;;;2.57;;
1837;SDS011;918;50.796;6.772;2023-02-03T04:36:54;3.17;;;2.60;;
1837;SDS011;918;50.796;6.772;2023-02-03T04:39:19;6.90;;;3.53;;
1837;SDS011;918;50.796;6.772;2023-02-03T04:41:45;5.97;;;3.20;;
1837;SDS011;918;50.796;6.772;2023-02-03T04:44:10;7.53;;;3.40;;
1837;SDS011;918;50.796;6.772;2023-02-03T04:46:35;3.20;;;2.50;;
1837;SDS011;918;50.796;6.772;2023-02-03T04:49:01;3.43;;;2.80;;
1837;SDS011;918;50.796;6.772;2023-02-03T04:51:26;5.27;;;2.50;;
1837;SDS011;918;50.796;6.772;2023-02-03T04:53:51;9.77;;;4.50;;
1837;SDS011;918;50.796;6.772;2023-02-03T04:56:16;2.20;;;2.00;;
1837;SDS011;918;50.796;6.772;2023-02-03T04:58:41;3.50;;;2.33;;
1837;SDS011;918;50.796;6.772;2023-02-03T05:01:07;3.03;;;2.43;;
1837;SDS011;918;50.796;6.772;2023-02-03T05:03:33;2.83;;;2.13;;
1837;SDS011;918;50.796;6.772;2023-02-03T05:05:59;5.13;;;2.87;;
1837;SDS011;918;50.796;6.772;2023-02-03T05:08:24;5.40;;;2.13;;
1837;SDS011;918;50.796;6.772;2023-02-03T05:10:49;2.70;;;2.50;;
1837;SDS011;918;50.796;6.772;2023-02-03T05:13:14;6.10;;;2.67;;
1837;SDS011;918;50.796;6.772;2023-02-03T05:15:40;4.33;;;2.27;;
1837;SDS011;918;50.796;6.772;2023-02-03T05:18:05;7.30;;;2.50;;
1837;SDS011;918;50.796;6.772;2023-02-03T05:20:30;2.53;;;2.10;;
1837;SDS011;918;50.796;6.772;2023-02-03T05:22:56;2.53;;;2.13;;
1837;SDS011;918;50.796;6.772;2023-02-03T05:25:22;3.83;;;2.50;;
1837;SDS011;918;50.796;6.772;2023-02-03T05:27:47;3.37;;;2.23;;
1837;SDS011;918;50.796;6.772;2023-02-03T05:30:12;3.00;;;2.70;;
1837;SDS011;918;50.796;6.772;2023-02-03T05:32:38;4.00;;;2.53;;
1837;SDS011;918;50.796;6.772;2023-02-03T05:35:03;3.80;;;2.10;;
1837;SDS011;918;50.796;6.772;2023-02-03T05:37:28;2.53;;;2.23;;
1837;SDS011;918;50.796;6.772;2023-02-03T05:39:54;3.10;;;2.47;;
1837;SDS011;918;50.796;6.772;2023-02-03T05:42:39;4.73;;;2.47;;
1837;SDS011;918;50.796;6.772;2023-02-03T05:45:04;5.00;;;2.30;;
1837;SDS011;918;50.796;6.772;2023-02-03T05:47:30;4.40;;;2.20;;
1837;SDS011;918;50.796;6.772;2023-02-03T05:49:55;3.83;;;2.80;;
1837;SDS011;918;50.796;6.772;2023-02-03T05:52:20;7.03;;;2.40;;
1837;SDS011;918;50.796;6.772;2023-02-03T05:54:45;1.97;;;1.70;;
1837;SDS011;918;50.796;6.772;2023-02-03T05:57:10;5.17;;;2.57;;
1837;SDS011;918;50.796;6.772;2023-02-03T05:59:37;4.40;;;2.43;;
1837;SDS011;918;50.796;6.772;2023-02-03T06:02:02;5.00;;;2.10;;
1837;SDS011;918;50.796;6.772;2023-02-03T06:04:27;2.80;;;1.70;;
1837;SDS011;918;50.796;6.772;2023-02-03T06:06:53;2.60;;;2.10;;
1837;SDS011;918;50.796;6.772;2023-02-03T06:09:18;3.47;;;2.17;;
1837;SDS011;918;50.796;6.772;2023-02-03T06:11:43;2.20;;;1.80;;
1837;SDS011;918;50.796;6.772;2023-02-03T06:14:09;3.57;;;2.10;;
1837;SDS011;918;50.796;6.772;2023-02-03T06:16:35;5.90;;;2.37;;
1837;SDS011;918;50.796;6.772;2023-02-03T06:19:00;2.97;;;2.07;;
1837;SDS011;918;50.796;6.772;2023-02-03T06:21:25;2.80;;;2.20;;
1837;SDS011;918;50.796;6.772;2023-02-03T06:23:51;2.50;;;1.80;;
1837;SDS011;918;50.796;6.772;2023-02-03T06:26:16;3.00;;;1.60;;
1837;SDS011;918;50.796;6.772;2023-02-03T06:28:41;2.73;;;1.67;;
1837;SDS011;918;50.796;6.772;2023-02-03T06:31:06;6.43;;;2.10;;
1837;SDS011;918;50.796;6.772;2023-02-03T06:33:32;5.90;;;2.70;;
1837;SDS011;918;50.796;6.772;2023-02-03T06:35:58;3.73;;;2.03;;
1837;SDS011;918;50.796;6.772;2023-02-03T06:38:23;2.90;;;1.63;;
1837;SDS011;918;50.796;6.772;2023-02-03T06:40:48;3.23;;;2.20;;
1837;SDS011;918;50.796;6.772;2023-02-03T06:43:14;5.33;;;1.97;;
1837;SDS011;918;50.796;6.772;2023-02-03T06:45:39;5.40;;;1.60;;
1837;SDS011;918;50.796;6.772;2023-02-03T06:48:05;2.87;;;1.70;;
1837;SDS011;918;50.796;6.772;2023-02-03T06:50:30;5.40;;;2.13;;
1837;SDS011;918;50.796;6.772;2023-02-03T06:52:55;2.93;;;1.70;;
1837;SDS011;918;50.796;6.772;2023-02-03T06:55:21;2.47;;;1.43;;
1837;SDS011;918;50.796;6.772;2023-02-03T06:57:46;3.20;;;1.80;;
1837;SDS011;918;50.796;6.772;2023-02-03T07:00:13;3.20;;;1.80;;
1837;SDS011;918;50.796;6.772;2023-02-03T07:02:39;1.87;;;1.60;;
1837;SDS011;918;50.796;6.772;2023-02-03T07:05:05;5.50;;;2.20;;
1837;SDS011;918;50.796;6.772;2023-02-03T07:07:30;4.03;;;1.63;;
1837;SDS011;918;50.796;6.772;2023-02-03T07:09:57;5.70;;;2.80;;
1837;SDS011;918;50.796;6.772;2023-02-03T07:12:22;2.47;;;1.40;;
1837;SDS011;918;50.796;6.772;2023-02-03T07:14:47;4.13;;;1.60;;
1837;SDS011;918;50.796;6.772;2023-02-03T07:17:12;2.73;;;1.60;;
1837;SDS011;918;50.796;6.772;2023-02-03T07:19:37;2.20;;;1.40;;
1837;SDS011;918;50.796;6.772;2023-02-03T07:22:03;3.13;;;1.50;;
1837;SDS011;918;50.796;6.772;2023-02-03T07:24:28;3.73;;;1.60;;
1837;SDS011;918;50.796;6.772;2023-02-03T07:26:53;2.90;;;1.57;;
1837;SDS011;918;50.796;6.772;2023-02-03T07:29:18;4.10;;;1.63;;
1837;SDS011;918;50.796;6.772;2023-02-03T07:31:44;2.47;;;1.80;;
1837;SDS011;918;50.796;6.772;2023-02-03T07:34:09;6.80;;;2.50;;
1837;SDS011;918;50.796;6.772;2023-02-03T07:36:34;5.80;;;2.27;;
1837;SDS011;918;50.796;6.772;2023-02-03T07:38:59;3.67;;;1.70;;
1837;SDS011;918;50.796;6.772;2023-02-03T07:41:25;4.57;;;1.60;;
1837;SDS011;918;50.796;6.772;2023-02-03T07:43:50;2.17;;;1.50;;
1837;SDS011;918;50.796;6.772;2023-02-03T07:46:15;1.90;;;1.27;;
1837;SDS011;918;50.796;6.772;2023-02-03T07:48:40;2.10;;;1.30;;
1837;SDS011;918;50.796;6.772;2023-02-03T07:51:06;1.43;;;1.33;;
1837;SDS011;918;50.796;6.772;2023-02-03T07:53:31;2.40;;;1.17;;
1837;SDS011;918;50.796;6.772;2023-02-03T07:56:00;2.00;;;1.37;;
1837;SDS011;918;50.796;6.772;2023-02-03T07:58:32;1.70;;;1.10;;
1837;SDS011;918;50.796;6.772;2023-02-03T08:00:58;2.33;;;1.30;;
1837;SDS011;918;50.796;6.772;2023-02-03T08:03:23;2.57;;;1.20;;
1837;SDS011;918;50.796;6.772;2023-02-03T08:05:49;1.77;;;1.43;;
1837;SDS011;918;50.796;6.772;2023-02-03T08:08:14;1.10;;;1.00;;
1837;SDS011;918;50.796;6.772;2023-02-03T08:10:40;2.00;;;1.30;;
1837;SDS011;918;50.796;6.772;2023-02-03T08:13:05;2.17;;;1.40;;
1837;SDS011;918;50.796;6.772;2023-02-03T08:15:30;4.80;;;1.30;;
1837;SDS011;918;50.796;6.772;2023-02-03T08:17:55;2.70;;;1.37;;
1837;SDS011;918;50.796;6.772;2023-02-03T08:20:21;3.43;;;2.07;;
1837;SDS011;918;50.796;6.772;2023-02-03T08:22:46;2.00;;;1.87;;
1837;SDS011;918;50.796;6.772;2023-02-03T08:25:11;1.43;;;1.33;;
1837;SDS011;918;50.796;6.772;2023-02-03T08:27:37;2.60;;;1.97;;
1837;SDS011;918;50.796;6.772;2023-02-03T08:30:03;3.53;;;1.70;;
1837;SDS011;918;50.796;6.772;2023-02-03T08:32:28;2.30;;;1.53;;
1837;SDS011;918;50.796;6.772;2023-02-03T08:34:53;3.77;;;2.43;;
1837;SDS011;918;50.796;6.772;2023-02-03T08:37:20;1.37;;;1.23;;
1837;SDS011;918;50.796;6.772;2023-02-03T08:39:48;2.50;;;1.30;;
1837;SDS011;918;50.796;6.772;2023-02-03T08:42:13;1.20;;;1.10;;
1837;SDS011;918;50.796;6.772;2023-02-03T08:44:38;3.17;;;1.40;;
1837;SDS011;918;50.796;6.772;2023-02-03T08:47:04;1.90;;;1.30;;
1837;SDS011;918;50.796;6.772;2023-02-03T08:49:30;4.17;;;1.77;;
1837;SDS011;918;50.796;6.772;2023-02-03T08:51:56;4.40;;;1.70;;
1837;SDS011;918;50.796;6.772;2023-02-03T08:54:22;2.27;;;1.40;;
1837;SDS011;918;50.796;6.772;2023-02-03T08:56:48;2.63;;;1.60;;
1837;SDS011;918;50.796;6.772;2023-02-03T08:59:13;2.13;;;1.10;;
1837;SDS011;918;50.796;6.772;2023-02-03T09:01:39;2.40;;;1.40;;
1837;SDS011;918;50.796;6.772;2023-02-03T09:04:05;1.73;;;1.50;;
1837;SDS011;918;50.796;6.772;2023-02-03T09:06:32;2.67;;;1.60;;
1837;SDS011;918;50.796;6.772;2023-02-03T09:08:58;2.77;;;1.33;;
1837;SDS011;918;50.796;6.772;2023-02-03T09:11:23;3.57;;;1.77;;
1837;SDS011;918;50.796;6.772;2023-02-03T09:13:48;2.97;;;2.30;;
1837;SDS011;918;50.796;6.772;2023-02-03T09:16:15;2.27;;;1.80;;
1837;SDS011;918;50.796;6.772;2023-02-03T09:18:41;3.33;;;1.80;;
1837;SDS011;918;50.796;6.772;2023-02-03T09:21:08;2.90;;;1.70;;
1837;SDS011;918;50.796;6.772;2023-02-03T09:23:38;4.67;;;1.70;;
1837;SDS011;918;50.796;6.772;2023-02-03T09:26:07;1.53;;;1.30;;
1837;SDS011;918;50.796;6.772;2023-02-03T09:28:34;1.53;;;1.43;;
1837;SDS011;918;50.796;6.772;2023-02-03T09:31:00;4.73;;;1.70;;
1837;SDS011;918;50.796;6.772;2023-02-03T09:33:29;3.23;;;1.70;;
1837;SDS011;918;50.796;6.772;2023-02-03T09:35:55;3.37;;;2.20;;
1837;SDS011;918;50.796;6.772;2023-02-03T09:38:21;3.70;;;2.20;;
1837;SDS011;918;50.796;6.772;2023-02-03T09:40:57;5.77;;;2.10;;
1837;SDS011;918;50.796;6.772;2023-02-03T09:46:04;4.50;;;2.47;;
1837;SDS011;918;50.796;6.772;2023-02-03T09:48:34;2.77;;;2.20;;
1837;SDS011;918;50.796;6.772;2023-02-03T09:51:02;4.03;;;2.00;;
1837;SDS011;918;50.796;6.772;2023-02-03T09:53:29;2.50;;;1.93;;
1837;SDS011;918;50.796;6.772;2023-02-03T09:56:21;4.20;;;2.40;;
1837;SDS011;918;50.796;6.772;2023-02-03T09:58:50;4.23;;;2.20;;
1837;SDS011;918;50.796;6.772;2023-02-03T10:01:15;4.60;;;2.10;;
1837;SDS011;918;50.796;6.772;2023-02-03T10:03:51;3.10;;;1.80;;
1837;SDS011;918;50.796;6.772;2023-02-03T10:08:59;2.43;;;1.97;;
1837;SDS011;918;50.796;6.772;2023-02-03T10:17:06;4.13;;;2.40;;
1837;SDS011;918;50.796;6.772;2023-02-03T10:19:42;4.30;;;2.43;;
1837;SDS011;918;50.796;6.772;2023-02-03T10:22:10;4.40;;;2.30;;
1837;SDS011;918;50.796;6.772;2023-02-03T10:24:39;3.13;;;1.80;;
1837;SDS011;918;50.796;6.772;2023-02-03T10:27:18;5.80;;;2.50;;
1837;SDS011;918;50.796;6.772;2023-02-03T10:29:50;4.60;;;2.03;;
1837;SDS011;918;50.796;6.772;2023-02-03T10:32:19;3.43;;;1.77;;
1837;SDS011;918;50.796;6.772;2023-02-03T10:34:46;2.43;;;2.20;;
1837;SDS011;918;50.796;6.772;2023-02-03T10:39:54;2.93;;;2.43;;
1837;SDS011;918;50.796;6.772;2023-02-03T10:42:20;3.90;;;2.17;;
1837;SDS011;918;50.796;6.772;2023-02-03T10:44:53;2.43;;;2.13;;
1837;SDS011;918;50.796;6.772;2023-02-03T10:50:00;3.07;;;2.03;;
1837;SDS011;918;50.796;6.772;2023-02-03T10:52:30;2.10;;;1.90;;
1837;SDS011;918;50.796;6.772;2023-02-03T10:57:43;2.87;;;2.37;;
1837;SDS011;918;50.796;6.772;2023-02-03T11:03:06;2.47;;;2.27;;
1837;SDS011;918;50.796;6.772;2023-02-03T11:05:33;2.20;;;2.00;;
1837;SDS011;918;50.796;6.772;2023-02-03T11:07:58;3.37;;;2.33;;
1837;SDS011;918;50.796;6.772;2023-02-03T11:10:25;2.10;;;2.00;;
1837;SDS011;918;50.796;6.772;2023-02-03T11:15:35;2.30;;;2.00;;
1837;SDS011;918;50.796;6.772;2023-02-03T11:18:00;2.90;;;2.63;;
1837;SDS011;918;50.796;6.772;2023-02-03T11:20:26;2.33;;;2.20;;
1837;SDS011;918;50.796;6.772;2023-02-03T11:22:56;3.47;;;2.50;;
1837;SDS011;918;50.796;6.772;2023-02-03T11:25:26;5.87;;;2.50;;
1837;SDS011;918;50.796;6.772;2023-02-03T11:27:54;3.03;;;2.73;;
1837;SDS011;918;50.796;6.772;2023-02-03T11:30:23;2.60;;;2.30;;
1837;SDS011;918;50.796;6.772;2023-02-03T11:32:50;2.53;;;2.43;;
1837;SDS011;918;50.796;6.772;2023-02-03T11:35:20;3.10;;;2.80;;
1837;SDS011;918;50.796;6.772;2023-02-03T11:37:48;3.03;;;2.63;;
1837;SDS011;918;50.796;6.772;2023-02-03T11:58:43;3.30;;;3.10;;
1837;SDS011;918;50.796;6.772;2023-02-03T12:01:29;4.13;;;3.83;;
1837;SDS011;918;50.796;6.772;2023-02-03T12:09:53;4.27;;;3.83;;
1837;SDS011;918;50.796;6.772;2023-02-03T12:12:30;4.23;;;3.80;;
1837;SDS011;918;50.796;6.772;2023-02-03T12:21:14;4.30;;;3.90;;
1837;SDS011;918;50.796;6.772;2023-02-03T12:26:41;4.60;;;4.20;;
1837;SDS011;918;50.796;6.772;2023-02-03T12:29:20;5.87;;;5.00;;
1837;SDS011;918;50.796;6.772;2023-02-03T12:34:32;4.00;;;3.70;;
1837;SDS011;918;50.796;6.772;2023-02-03T12:37:11;4.53;;;4.13;;
1837;SDS011;918;50.796;6.772;2023-02-03T12:39:44;8.50;;;5.90;;
1837;SDS011;918;50.796;6.772;2023-02-03T12:53:32;6.27;;;5.70;;
1837;SDS011;918;50.796;6.772;2023-02-03T12:55:43;5.93;;;5.43;;
1837;SDS011;918;50.796;6.772;2023-02-03T12:58:24;5.50;;;5.10;;
1837;SDS011;918;50.796;6.772;2023-02-03T13:06:05;7.47;;;6.40;;
1837;SDS011;918;50.796;6.772;2023-02-03T13:08:42;7.40;;;6.40;;
1837;SDS011;918;50.796;6.772;2023-02-03T13:11:25;6.50;;;5.90;;
1837;SDS011;918;50.796;6.772;2023-02-03T13:14:25;6.70;;;6.10;;
1837;SDS011;918;50.796;6.772;2023-02-03T13:16:54;6.67;;;6.17;;
1837;SDS011;918;50.796;6.772;2023-02-03T13:19:27;7.83;;;6.87;;
1837;SDS011;918;50.796;6.772;2023-02-03T13:21:53;9.07;;;6.60;;
1837;SDS011;918;50.796;6.772;2023-02-03T13:24:19;8.10;;;7.40;;
1837;SDS011;918;50.796;6.772;2023-02-03T13:29:44;9.37;;;7.47;;
1837;SDS011;918;50.796;6.772;2023-02-03T13:35:19;8.87;;;8.20;;
1837;SDS011;918;50.796;6.772;2023-02-03T13:38:32;8.10;;;7.40;;
1837;SDS011;918;50.796;6.772;2023-02-03T13:43:32;8.60;;;7.67;;
1837;SDS011;918;50.796;6.772;2023-02-03T13:45:59;10.47;;;8.33;;
1837;SDS011;918;50.796;6.772;2023-02-03T13:48:26;11.13;;;8.47;;
1837;SDS011;918;50.796;6.772;2023-02-03T13:53:37;8.50;;;7.60;;
1837;SDS011;918;50.796;6.772;2023-02-03T13:56:05;9.80;;;8.90;;
1837;SDS011;918;50.796;6.772;2023-02-03T13:58:32;10.17;;;9.27;;
1837;SDS011;918;50.796;6.772;2023-02-03T14:01:01;10.90;;;9.50;;
1837;SDS011;918;50.796;6.772;2023-02-03T14:16:28;10.10;;;9.17;;
1837;SDS011;918;50.796;6.772;2023-02-03T14:18:58;10.00;;;9.10;;
1837;SDS011;918;50.796;6.772;2023-02-03T14:21:24;9.33;;;8.47;;
1837;SDS011;918;50.796;6.772;2023-02-03T14:23:51;10.60;;;9.50;;
1837;SDS011;918;50.796;6.772;2023-02-03T14:26:21;11.33;;;10.23;;
1837;SDS011;918;50.796;6.772;2023-02-03T14:28:49;9.43;;;8.73;;
1837;SDS011;918;50.796;6.772;2023-02-03T14:31:17;9.90;;;9.00;;
1837;SDS011;918;50.796;6.772;2023-02-03T14:36:25;10.90;;;8.90;;
1837;SDS011;918;50.796;6.772;2023-02-03T14:38:57;8.17;;;7.30;;
1837;SDS011;918;50.796;6.772;2023-02-03T14:41:28;9.97;;;9.17;;
1837;SDS011;918;50.796;6.772;2023-02-03T14:46:50;9.73;;;8.73;;
1837;SDS011;918;50.796;6.772;2023-02-03T14:49:33;10.27;;;9.37;;
1837;SDS011;918;50.796;6.772;2023-02-03T14:57:41;10.20;;;9.20;;
1837;SDS011;918;50.796;6.772;2023-02-03T15:05:50;11.07;;;10.07;;
1837;SDS011;918;50.796;6.772;2023-02-03T15:11:27;11.07;;;9.83;;
1837;SDS011;918;50.796;6.772;2023-02-03T15:13:55;11.50;;;10.30;;
1837;SDS011;918;50.796;6.772;2023-02-03T15:16:22;11.83;;;10.40;;
1837;SDS011;918;50.796;6.772;2023-02-03T15:18:52;11.33;;;10.23;;
1837;SDS011;918;50.796;6.772;2023-02-03T15:21:22;12.20;;;10.87;;
1837;SDS011;918;50.796;6.772;2023-02-03T15:23:48;11.23;;;10.23;;
1837;SDS011;918;50.796;6.772;2023-02-03T15:26:17;11.23;;;10.23;;
1837;SDS011;918;50.796;6.772;2023-02-03T15:28:52;13.63;;;12.23;;
1837;SDS011;918;50.796;6.772;2023-02-03T15:31:20;11.67;;;10.70;;
1837;SDS011;918;50.796;6.772;2023-02-03T15:33:49;12.67;;;11.33;;
1837;SDS011;918;50.796;6.772;2023-02-03T15:36:18;11.37;;;10.40;;
1837;SDS011;918;50.796;6.772;2023-02-03T15:38:49;13.07;;;10.23;;
1837;SDS011;918;50.796;6.772;2023-02-03T15:41:28;10.57;;;9.67;;
1837;SDS011;918;50.796;6.772;2023-02-03T15:43:58;11.10;;;10.00;;
1837;SDS011;918;50.796;6.772;2023-02-03T15:46:33;12.27;;;11.13;;
1837;SDS011;918;50.796;6.772;2023-02-03T15:49:02;10.30;;;9.40;;
1837;SDS011;918;50.796;6.772;2023-02-03T15:51:32;10.57;;;9.50;;
1837;SDS011;918;50.796;6.772;2023-02-03T15:54:06;11.80;;;10.60;;
1837;SDS011;918;50.796;6.772;2023-02-03T15:56:46;11.30;;;10.20;;
1837;SDS011;918;50.796;6.772;2023-02-03T16:01:50;11.70;;;9.67;;
1837;SDS011;918;50.796;6.772;2023-02-03T16:04:16;11.03;;;10.13;;
1837;SDS011;918;50.796;6.772;2023-02-03T16:06:43;10.23;;;9.43;;
1837;SDS011;918;50.796;6.772;2023-02-03T16:12:01;13.13;;;11.83;;
1837;SDS011;918;50.796;6.772;2023-02-03T16:14:45;12.30;;;9.50;;
1837;SDS011;918;50.796;6.772;2023-02-03T16:17:20;12.00;;;10.40;;
1837;SDS011;918;50.796;6.772;2023-02-03T16:19:48;11.80;;;10.87;;
1837;SDS011;918;50.796;6.772;2023-02-03T16:22:28;11.03;;;10.03;;
1837;SDS011;918;50.796;6.772;2023-02-03T16:24:56;11.43;;;10.33;;
1837;SDS011;918;50.796;6.772;2023-02-03T16:29:50;11.63;;;10.63;;
1837;SDS011;918;50.796;6.772;2023-02-03T16:32:35;11.47;;;10.50;;
1837;SDS011;918;50.796;6.772;2023-02-03T16:35:19;10.77;;;9.80;;
1837;SDS011;918;50.796;6.772;2023-02-03T16:38:04;10.63;;;9.63;;
1837;SDS011;918;50.796;6.772;2023-02-03T16:40:49;10.07;;;9.07;;
1837;SDS011;918;50.796;6.772;2023-02-03T16:43:33;10.50;;;9.40;;
1837;SDS011;918;50.796;6.772;2023-02-03T16:46:17;12.20;;;9.10;;
1837;SDS011;918;50.796;6.772;2023-02-03T16:49:01;10.20;;;9.40;;
1837;SDS011;918;50.796;6.772;2023-02-03T16:51:45;10.60;;;9.70;;
1837;SDS011;918;50.796;6.772;2023-02-03T16:54:11;10.30;;;9.40;;
1837;SDS011;918;50.796;6.772;2023-02-03T16:56:37;13.13;;;9.40;;
1837;SDS011;918;50.796;6.772;2023-02-03T16:59:02;11.00;;;9.93;;
1837;SDS011;918;50.796;6.772;2023-02-03T17:01:27;11.10;;;10.00;;
1837;SDS011;918;50.796;6.772;2023-02-03T17:03:53;11.90;;;10.70;;
1837;SDS011;918;50.796;6.772;2023-02-03T17:06:18;12.70;;;11.53;;
1837;SDS011;918;50.796;6.772;2023-02-03T17:08:44;12.77;;;11.47;;
1837;SDS011;918;50.796;6.772;2023-02-03T17:11:16;12.50;;;10.80;;
1837;SDS011;918;50.796;6.772;2023-02-03T17:13:44;10.40;;;9.50;;
1837;SDS011;918;50.796;6.772;2023-02-03T17:16:11;12.40;;;11.20;;
1837;SDS011;918;50.796;6.772;2023-02-03T17:18:38;10.93;;;9.93;;
1837;SDS011;918;50.796;6.772;2023-02-03T17:21:04;13.47;;;11.63;;
1837;SDS011;918;50.796;6.772;2023-02-03T17:23:31;12.10;;;11.10;;
1837;SDS011;918;50.796;6.772;2023-02-03T17:25:56;11.03;;;10.10;;
1837;SDS011;918;50.796;6.772;2023-02-03T17:28:21;11.50;;;10.40;;
1837;SDS011;918;50.796;6.772;2023-02-03T17:30:54;12.33;;;11.13;;
1837;SDS011;918;50.796;6.772;2023-02-03T17:33:23;10.50;;;9.50;;
1837;SDS011;918;50.796;6.772;2023-02-03T17:35:57;11.67;;;10.47;;
1837;SDS011;918;50.796;6.772;2023-02-03T17:38:31;14.20;;;10.47;;
1837;SDS011;918;50.796;6.772;2023-02-03T17:41:06;16.43;;;9.87;;
1837;SDS011;918;50.796;6.772;2023-02-03T17:43:35;8.70;;;7.80;;
1837;SDS011;918;50.796;6.772;2023-02-03T17:46:00;8.63;;;7.03;;
1837;SDS011;918;50.796;6.772;2023-02-03T17:48:25;8.23;;;6.20;;
1837;SDS011;918;50.796;6.772;2023-02-03T17:50:51;8.87;;;6.87;;
1837;SDS011;918;50.796;6.772;2023-02-03T17:53:16;8.40;;;5.03;;
1837;SDS011;918;50.796;6.772;2023-02-03T17:55:41;7.80;;;4.13;;
1837;SDS011;918;50.796;6.772;2023-02-03T17:58:06;8.50;;;5.50;;
1837;SDS011;918;50.796;6.772;2023-02-03T18:00:32;5.73;;;4.30;;
1837;SDS011;918;50.796;6.772;2023-02-03T18:02:57;10.00;;;4.23;;
1837;SDS011;918;50.796;6.772;2023-02-03T18:05:22;9.90;;;4.80;;
1837;SDS011;918;50.796;6.772;2023-02-03T18:07:47;5.87;;;4.53;;
1837;SDS011;918;50.796;6.772;2023-02-03T18:10:13;6.30;;;4.33;;
1837;SDS011;918;50.796;6.772;2023-02-03T18:12:38;8.50;;;4.47;;
1837;SDS011;918;50.796;6.772;2023-02-03T18:15:03;6.27;;;4.80;;